Time;durP1;ratioP1;P1;durP2;ratioP2;P2;SDS_P1;SDS_P2;PMS_P1;PMS_P2;Temp;Humidity;BMP_temperature;BMP_pressure;BME280_temperature;BME280_humidity;BME280_pressure;Samples;Min_cycle;Max_cycle;Signal;HPM_P1;HPM_P2
2022/07/07 00:01:26;;;;;;;2.92;1.25;;;14.50;93.30;;;14.27;69.30;97838.72;4943183;28;20165;-38
2022/07/07 00:03:53;;;;;;;3.53;1.45;;;14.50;93.40;;;14.28;68.79;97829.81;4944811;28;20034;-38
2022/07/07 00:06:18;;;;;;;3.90;1.30;;;14.50;93.20;;;14.28;68.52;97823.63;4947537;28;20066;-38
2022/07/07 00:08:44;;;;;;;2.05;1.33;;;14.50;93.10;;;14.32;67.60;97835.84;4956795;28;20524;-38
2022/07/07 00:11:10;;;;;;;1.90;1.10;;;14.60;92.90;;;14.37;67.15;97835.63;4940058;28;20114;-38
2022/07/07 00:13:36;;;;;;;4.60;1.55;;;14.70;92.70;;;14.40;67.07;97831.03;4956823;28;20035;-38
2022/07/07 00:16:02;;;;;;;2.03;1.30;;;14.70;92.70;;;14.43;66.95;97828.25;4947790;28;20039;-38
2022/07/07 00:18:28;;;;;;;1.88;1.10;;;14.70;92.80;;;14.48;67.59;97830.69;4950327;28;20043;-39
2022/07/07 00:20:53;;;;;;;3.95;1.25;;;14.70;92.80;;;14.49;66.95;97829.78;4954195;28;20479;-38
2022/07/07 00:23:19;;;;;;;2.17;1.27;;;14.70;92.80;;;14.50;66.70;97834.16;4948341;28;20066;-38
2022/07/07 00:25:45;;;;;;;1.52;1.00;;;14.80;92.50;;;14.52;67.54;97829.63;4951802;28;20042;-38
2022/07/07 00:28:11;;;;;;;2.30;1.20;;;14.80;92.80;;;14.52;66.64;97838.44;4951478;28;20595;-38
2022/07/07 00:30:37;;;;;;;3.25;1.25;;;14.80;92.50;;;14.54;66.95;97838.38;4949446;28;20542;-38
2022/07/07 00:33:02;;;;;;;4.53;1.38;;;14.80;92.60;;;14.51;66.69;97826.09;4950476;28;20070;-38
2022/07/07 00:35:28;;;;;;;1.85;1.10;;;14.80;92.50;;;14.52;66.31;97827.84;4945113;28;20650;-38
2022/07/07 00:37:54;;;;;;;1.85;1.10;;;14.80;92.40;;;14.54;66.62;97826.91;4952842;28;20039;-38
2022/07/07 00:40:19;;;;;;;3.80;1.42;;;14.80;92.50;;;14.51;67.19;97819.94;4951107;28;20039;-38
2022/07/07 00:42:45;;;;;;;3.40;1.20;;;14.80;92.70;;;14.51;66.16;97830.56;4959002;28;20114;-38
2022/07/07 00:45:11;;;;;;;2.88;1.50;;;14.80;92.50;;;14.50;66.01;97823.53;4950369;28;20090;-38
2022/07/07 00:47:40;;;;;;;4.22;1.02;;;14.80;92.50;;;14.50;66.05;97824.41;4951034;28;20058;-38
2022/07/07 00:50:07;;;;;;;3.50;1.30;;;14.80;92.30;;;14.54;66.46;97824.25;4954254;28;20042;-38
2022/07/07 00:52:33;;;;;;;1.90;1.38;;;14.80;92.40;;;14.54;66.11;97813.66;4953729;28;20039;-38
2022/07/07 00:55:02;;;;;;;2.58;1.15;;;14.80;92.30;;;14.43;66.19;97791.13;4953641;28;20117;-39
2022/07/07 00:57:28;;;;;;;3.88;1.30;;;14.80;92.40;;;14.57;65.75;97819.69;4952268;28;20118;-38
2022/07/07 00:59:59;;;;;;;3.42;1.55;;;14.80;92.30;;;14.57;65.12;97808.19;4954451;28;20037;-39
2022/07/07 01:02:29;;;;;;;5.00;1.20;;;14.90;92.10;;;14.63;65.29;97810.59;4950500;28;20054;-39
2022/07/07 01:04:57;;;;;;;2.95;1.40;;;14.90;92.10;;;14.66;64.82;97808.66;4954121;28;20029;-38
2022/07/07 01:07:23;;;;;;;1.60;1.10;;;14.90;92.00;;;14.68;64.56;97808.59;4949567;28;20394;-38
2022/07/07 01:09:49;;;;;;;2.30;1.20;;;14.90;91.80;;;14.69;64.59;97807.63;4945711;28;20042;-38
2022/07/07 01:12:15;;;;;;;2.10;1.10;;;14.90;91.90;;;14.69;64.77;97802.31;4938441;28;20030;-38
2022/07/07 01:14:40;;;;;;;3.20;1.42;;;15.00;91.90;;;14.73;64.18;97803.03;4956212;28;20567;-38
2022/07/07 01:17:06;;;;;;;3.90;1.10;;;15.00;91.80;;;14.72;64.83;97798.69;4949131;28;20073;-38
2022/07/07 01:19:32;;;;;;;3.53;1.20;;;15.00;91.90;;;14.73;63.98;97800.38;4952224;28;20086;-38
2022/07/07 01:22:01;;;;;;;1.98;1.20;;;15.00;91.60;;;14.74;64.54;97795.00;4952823;28;20124;-38
2022/07/07 01:24:29;;;;;;;2.63;1.17;;;15.00;91.90;;;14.76;64.22;97797.59;4951772;28;20020;-38
2022/07/07 01:27:19;;;;;;;2.28;1.33;;;15.00;91.80;;;14.68;64.88;97792.66;4947817;28;20271;-38
2022/07/07 01:29:48;;;;;;;2.63;1.35;;;15.00;91.80;;;14.69;64.65;97787.25;4954757;28;20031;-38
2022/07/07 01:32:14;;;;;;;2.88;1.65;;;15.00;91.90;;;14.69;64.83;97797.03;4944855;28;20116;-38
2022/07/07 01:34:43;;;;;;;4.07;1.27;;;14.90;91.90;;;14.64;65.01;97783.97;4955187;28;20058;-38
2022/07/07 01:37:10;;;;;;;2.25;1.17;;;14.90;92.00;;;14.62;65.45;97779.66;4950775;28;20035;-38
2022/07/07 01:39:37;;;;;;;2.42;1.20;;;14.90;92.10;;;14.60;66.08;97781.53;4949914;28;20027;-39
2022/07/07 01:42:04;;;;;;;2.85;1.23;;;14.90;92.30;;;14.41;65.67;97749.63;4949727;28;20035;-38
2022/07/07 01:44:31;;;;;;;3.53;1.00;;;14.90;92.20;;;14.57;66.41;97779.88;4935702;28;20432;-38
2022/07/07 01:46:57;;;;;;;4.50;1.05;;;14.80;92.40;;;14.56;66.75;97775.47;4950297;28;20038;-38
2022/07/07 01:49:22;;;;;;;2.22;1.20;;;14.90;92.60;;;14.59;66.87;97769.19;4952613;28;20311;-38
2022/07/07 01:51:48;;;;;;;1.85;1.08;;;14.80;92.60;;;14.60;66.58;97768.25;4943244;28;20161;-38
2022/07/07 01:54:14;;;;;;;4.60;1.40;;;14.90;92.60;;;14.60;66.70;97763.81;4954454;28;20679;-38
2022/07/07 01:56:40;;;;;;;4.97;1.50;;;14.90;92.60;;;14.57;66.81;97757.75;4950442;28;20037;-39
2022/07/07 01:59:05;;;;;;;2.65;1.20;;;14.90;92.70;;;14.61;66.97;97770.84;4954888;28;20043;-39
2022/07/07 02:01:31;;;;;;;7.53;1.40;;;14.90;92.70;;;14.59;67.51;97764.75;4952011;28;20397;-39
2022/07/07 02:03:57;;;;;;;2.17;1.10;;;14.90;92.80;;;14.57;67.89;97760.41;4951603;28;20082;-39
2022/07/07 02:06:22;;;;;;;4.43;1.20;;;14.90;92.90;;;14.58;67.58;97759.50;4949811;28;20491;-39
2022/07/07 02:08:48;;;;;;;4.05;1.30;;;14.90;92.90;;;14.56;66.99;97769.31;4955177;28;20078;-39
2022/07/07 02:11:14;;;;;;;3.97;1.60;;;14.80;92.70;;;14.49;67.25;97761.63;4957136;28;20027;-38
2022/07/07 02:13:47;;;;;;;4.93;1.30;;;14.80;92.80;;;14.42;68.03;97754.03;4955391;28;20030;-38
2022/07/07 02:16:15;;;;;;;3.22;1.40;;;14.70;93.00;;;14.36;68.33;97759.63;4953056;28;20070;-38
2022/07/07 02:18:43;;;;;;;1.65;1.02;;;14.60;93.10;;;14.35;68.93;97760.56;4954658;28;20063;-39
2022/07/07 02:21:10;;;;;;;1.58;1.10;;;14.60;93.30;;;14.32;68.76;97757.13;4947480;28;20023;-39
2022/07/07 02:23:38;;;;;;;4.40;1.48;;;14.60;93.80;;;14.30;69.18;97764.28;4953512;28;20027;-39
2022/07/07 02:26:04;;;;;;;3.08;1.20;;;14.50;93.40;;;14.26;69.38;97756.53;4951036;28;20031;-39
2022/07/07 02:28:30;;;;;;;5.57;1.60;;;14.50;93.60;;;14.26;69.61;97775.09;4953619;28;20039;-39
2022/07/07 02:30:58;;;;;;;3.53;1.50;;;14.50;93.60;;;14.27;69.85;97774.19;4947999;28;20035;-38
2022/07/07 02:33:24;;;;;;;2.90;1.40;;;14.50;93.70;;;14.27;69.73;97775.03;4949028;28;20050;-38
2022/07/07 02:35:57;;;;;;;3.22;1.00;;;14.60;93.70;;;14.31;69.34;97765.16;4954210;28;20602;-38
2022/07/07 02:38:24;;;;;;;4.13;1.40;;;14.60;93.60;;;14.28;69.90;97767.94;4949155;28;20569;-38
2022/07/07 02:40:50;;;;;;;3.00;1.40;;;14.50;93.80;;;14.29;69.69;97767.84;4946917;28;20049;-39
2022/07/07 02:43:17;;;;;;;7.13;1.35;;;14.60;93.70;;;14.20;69.75;97762.97;4951425;28;20066;-38
2022/07/07 02:45:46;;;;;;;2.08;1.33;;;14.60;93.70;;;14.23;70.01;97765.50;4947737;28;20130;-39
2022/07/07 02:48:16;;;;;;;2.50;1.38;;;14.50;93.70;;;14.24;69.90;97764.56;4947720;28;20030;-39
2022/07/07 02:50:42;;;;;;;3.53;1.30;;;14.50;93.80;;;14.23;70.02;97765.50;4948355;28;20035;-39
2022/07/07 02:53:10;;;;;;;1.90;1.10;;;14.50;93.80;;;14.24;70.21;97763.69;4950035;28;20356;-39
2022/07/07 02:55:36;;;;;;;1.38;1.08;;;14.50;93.90;;;14.23;70.28;97765.50;4940275;28;20101;-38
2022/07/07 02:58:03;;;;;;;3.67;1.10;;;14.50;93.90;;;14.20;70.98;97757.69;4952178;28;20043;-38
2022/07/07 03:00:29;;;;;;;1.23;1.02;;;14.50;94.20;;;14.18;71.47;97764.00;4946675;28;20382;-38
2022/07/07 03:02:55;;;;;;;3.60;1.23;;;14.40;94.30;;;14.13;72.05;97748.28;4950535;28;20056;-38
2022/07/07 03:05:22;;;;;;;2.53;1.40;;;14.40;94.60;;;14.18;73.53;97748.09;4946782;28;20054;-38
2022/07/07 03:07:49;;;;;;;1.77;1.20;;;14.40;95.00;;;14.18;73.66;97754.25;4939951;28;20069;-38
2022/07/07 03:10:15;;;;;;;1.77;1.10;;;14.40;95.10;;;14.10;73.76;97727.19;4948019;28;20027;-38
2022/07/07 03:12:42;;;;;;;2.38;1.27;;;14.40;95.20;;;14.22;72.66;97747.00;4947406;28;20031;-38
2022/07/07 03:15:08;;;;;;;3.55;1.15;;;14.50;94.80;;;14.25;71.82;97746.88;4950305;28;20034;-38
2022/07/07 03:17:35;;;;;;;3.60;1.20;;;14.50;94.60;;;14.30;72.23;97745.72;4934326;28;20031;-38
2022/07/07 03:20:02;;;;;;;1.90;1.10;;;14.60;94.90;;;14.33;71.88;97747.34;4955333;28;20129;-38
2022/07/07 03:22:28;;;;;;;5.20;1.45;;;14.60;94.70;;;14.37;71.19;97745.41;4942747;28;20055;-38
2022/07/07 03:24:54;;;;;;;1.98;0.95;;;14.60;94.40;;;14.41;70.38;97739.03;4942284;28;20551;-38
2022/07/07 03:27:20;;;;;;;1.25;0.90;;;14.60;94.10;;;14.45;70.23;97737.97;4940275;28;20058;-38
2022/07/07 03:29:46;;;;;;;3.70;1.08;;;14.70;94.10;;;14.51;70.60;97727.06;4946289;28;20062;-37
2022/07/07 03:32:11;;;;;;;1.42;0.90;;;14.70;94.30;;;14.52;71.44;97721.69;4968146;23;20050;-40
2022/07/07 03:34:37;;;;;;;1.92;1.10;;;14.80;94.50;;;14.59;70.91;97730.25;4961888;28;20038;-40
2022/07/07 03:37:03;;;;;;;1.60;1.23;;;14.80;94.40;;;14.62;69.78;97729.22;4968070;28;20565;-40
2022/07/07 03:39:29;;;;;;;6.80;1.80;;;14.80;94.10;;;14.67;70.13;97732.53;4957507;28;20026;-41
2022/07/07 03:41:55;;;;;;;1.13;0.93;;;14.90;94.10;;;14.71;68.96;97715.50;4956721;28;20026;-41
2022/07/07 03:44:21;;;;;;;2.80;1.13;;;15.00;93.80;;;14.79;69.47;97720.47;4947018;28;20023;-41
2022/07/07 03:46:47;;;;;;;4.75;1.27;;;15.00;93.90;;;14.83;68.89;97714.06;4948486;28;20037;-41
2022/07/07 03:49:12;;;;;;;5.97;1.38;;;15.10;93.80;;;14.92;67.42;97723.38;4949743;28;20683;-41
2022/07/07 03:51:38;;;;;;;1.58;0.98;;;15.10;93.30;;;14.94;67.04;97719.69;4932795;28;20054;-41
2022/07/07 03:54:04;;;;;;;1.70;0.90;;;15.20;93.10;;;14.97;66.59;97718.69;4952552;28;20060;-41
2022/07/07 03:56:30;;;;;;;2.25;1.10;;;15.20;93.00;;;14.99;66.79;97712.38;4952680;28;20030;-41
2022/07/07 03:58:56;;;;;;;3.17;1.42;;;15.20;93.10;;;15.05;66.52;97706.72;4952593;28;20558;-41
2022/07/07 04:01:21;;;;;;;4.35;1.30;;;15.30;93.00;;;15.08;67.02;97721.66;4947420;28;20038;-41
2022/07/07 04:03:47;;;;;;;3.97;1.30;;;15.30;93.10;;;15.07;66.71;97711.97;4949790;28;20170;-41
2022/07/07 04:06:13;;;;;;;4.03;1.30;;;15.30;93.00;;;15.04;66.90;97710.34;4947219;28;20043;-41
2022/07/07 04:08:39;;;;;;;2.10;1.20;;;15.30;93.10;;;15.01;67.06;97710.47;4949667;28;20039;-41
2022/07/07 04:11:05;;;;;;;7.88;1.25;;;15.30;93.10;;;15.02;67.00;97714.88;4947680;28;20031;-41
2022/07/07 04:13:30;;;;;;;2.33;1.30;;;15.30;93.10;;;15.01;66.87;97718.44;4950520;28;20041;-41
2022/07/07 04:15:56;;;;;;;1.60;1.20;;;15.30;93.10;;;15.03;67.22;97721.03;4935854;28;20487;-41
2022/07/07 04:18:22;;;;;;;3.42;1.40;;;15.30;93.20;;;14.99;67.80;97722.97;4947900;28;20039;-41
2022/07/07 04:20:48;;;;;;;3.50;1.25;;;15.30;93.40;;;14.94;67.89;97717.03;4951764;28;20074;-41
2022/07/07 04:23:14;;;;;;;2.40;1.40;;;15.30;93.40;;;14.99;67.58;97733.59;4949925;28;20328;-41
2022/07/07 04:25:40;;;;;;;2.80;1.50;;;15.30;93.40;;;14.97;68.37;97718.69;4939683;28;20022;-41
2022/07/07 04:28:06;;;;;;;3.03;1.20;;;15.20;93.40;;;14.95;68.11;97715.22;4935750;28;20070;-41
2022/07/07 04:30:32;;;;;;;2.00;1.23;;;15.20;93.50;;;14.81;68.13;97700.00;4955116;28;20556;-41
2022/07/07 04:32:58;;;;;;;2.40;1.00;;;15.20;93.40;;;14.98;68.42;97717.75;4954794;28;20038;-41
2022/07/07 04:35:24;;;;;;;3.22;1.50;;;15.20;93.60;;;15.00;68.00;97706.13;4957961;28;20053;-41
2022/07/07 04:37:50;;;;;;;2.85;1.20;;;15.30;93.50;;;15.05;68.05;97703.22;4938855;28;20740;-41
2022/07/07 04:40:15;;;;;;;1.63;1.08;;;15.30;93.60;;;15.14;67.39;97709.88;4935073;28;20027;-41
2022/07/07 04:42:41;;;;;;;2.20;1.15;;;15.30;93.30;;;15.20;67.18;97709.53;4953987;28;20086;-41
2022/07/07 04:45:08;;;;;;;3.78;1.30;;;15.40;93.30;;;15.25;66.62;97711.06;4953409;28;20039;-41
2022/07/07 04:47:39;;;;;;;2.75;1.10;;;15.50;93.10;;;15.33;65.82;97713.31;4958124;28;20070;-41
2022/07/07 04:50:10;;;;;;;3.20;1.40;;;15.50;92.90;;;15.28;65.69;97708.22;4959666;28;20039;-41
2022/07/07 04:52:37;;;;;;;2.53;1.20;;;15.50;92.80;;;15.26;66.21;97711.91;4952945;28;20062;-41
2022/07/07 04:55:04;;;;;;;3.05;1.40;;;15.50;93.00;;;15.12;67.59;97707.28;4950817;28;20058;-41
2022/07/07 04:57:30;;;;;;;3.40;1.25;;;15.40;93.20;;;14.98;67.84;97710.63;4956967;28;20034;-41
2022/07/07 04:59:55;;;;;;;5.32;1.40;;;15.20;93.40;;;14.92;68.23;97700.31;4958918;28;20038;-41
2022/07/07 05:02:21;;;;;;;1.70;1.00;;;15.20;93.60;;;14.89;68.26;97704.00;4955585;28;20679;-41
2022/07/07 05:04:49;;;;;;;3.05;1.20;;;15.10;93.60;;;14.84;68.79;97705.13;4960107;28;20030;-41
2022/07/07 05:07:15;;;;;;;4.18;1.50;;;15.10;93.70;;;14.77;69.70;97701.94;4959657;28;20106;-41
2022/07/07 05:09:41;;;;;;;2.22;1.20;;;15.00;94.00;;;14.82;69.24;97696.41;4955213;28;20035;-41
2022/07/07 05:12:07;;;;;;;4.80;1.23;;;15.00;94.10;;;15.07;68.42;97693.38;4962810;28;20041;-41
2022/07/07 05:14:32;;;;;;;3.85;1.13;;;15.10;94.00;;;15.35;67.14;97702.63;4954102;28;20101;-41
2022/07/07 05:16:59;;;;;;;2.60;1.30;;;15.30;93.90;;;15.52;66.33;97699.06;4960167;28;20034;-41
2022/07/07 05:19:26;;;;;;;3.10;1.10;;;15.40;93.60;;;15.66;64.95;97697.41;4955009;28;20034;-41
2022/07/07 05:21:51;;;;;;;3.40;1.27;;;15.60;93.10;;;15.75;64.70;97698.75;4958840;28;20035;-41
2022/07/07 05:24:17;;;;;;;2.33;1.15;;;15.70;93.00;;;15.69;65.35;97691.06;4954223;28;20023;-41
2022/07/07 05:26:44;;;;;;;4.40;1.20;;;15.70;93.10;;;16.38;63.39;97697.13;4956679;28;20035;-41
2022/07/07 05:29:10;;;;;;;3.70;1.85;;;15.90;93.10;;;16.75;60.10;97703.91;4961130;28;20037;-41
2022/07/07 05:31:36;;;;;;;1.58;1.00;;;16.20;92.40;;;17.21;58.83;97702.22;4953641;28;20038;-41
2022/07/07 05:34:02;;;;;;;2.80;1.38;;;16.50;91.90;;;17.75;56.26;97703.38;4957312;28;20035;-41
2022/07/07 05:36:27;;;;;;;1.95;1.20;;;16.90;91.50;;;18.36;54.79;97708.53;4958251;28;20058;-41
2022/07/07 05:38:53;;;;;;;1.60;0.82;;;17.30;91.00;;;18.59;53.67;97693.72;4958566;28;20097;-41
2022/07/07 05:41:19;;;;;;;2.80;1.17;;;17.60;90.50;;;18.55;52.95;97705.53;4959602;28;20490;-41
2022/07/07 05:43:45;;;;;;;1.88;1.02;;;17.80;90.00;;;18.40;53.76;97693.19;4957560;28;20038;-41
2022/07/07 05:46:11;;;;;;;1.45;0.90;;;17.90;89.50;;;18.33;54.19;97691.88;4953197;28;20038;-41
2022/07/07 05:48:37;;;;;;;2.67;1.13;;;17.90;89.50;;;18.24;54.76;97693.31;4957401;28;20022;-41
2022/07/07 05:51:03;;;;;;;2.30;1.10;;;18.00;89.50;;;18.24;54.13;97687.97;4960670;28;20034;-38
2022/07/07 05:53:29;;;;;;;2.45;0.98;;;18.00;88.70;;;18.30;54.25;97690.22;4955816;28;20109;-38
2022/07/07 05:55:56;;;;;;;1.92;1.13;;;18.20;88.80;;;18.40;54.02;97693.19;4957484;28;21445;-38
2022/07/07 05:58:22;;;;;;;2.33;0.80;;;18.30;88.40;;;18.56;53.33;97693.06;4956591;28;20143;-39
2022/07/07 06:00:48;;;;;;;2.83;1.27;;;18.40;87.80;;;18.62;51.76;97698.00;4955580;28;20580;-38
2022/07/07 06:03:14;;;;;;;1.98;0.98;;;18.60;86.20;;;18.77;52.10;97690.78;4943305;28;20034;-38
2022/07/07 06:05:40;;;;;;;2.25;1.05;;;18.80;86.40;;;18.97;52.05;97703.75;4953660;28;20233;-39
2022/07/07 06:08:06;;;;;;;2.17;1.10;;;19.00;85.90;;;19.08;51.03;97690.50;4955297;28;20042;-38
2022/07/07 06:10:32;;;;;;;2.10;0.88;;;19.20;85.10;;;19.28;52.42;97691.00;4954628;28;20030;-38
2022/07/07 06:12:58;;;;;;;1.30;1.00;;;19.40;85.40;;;19.48;50.39;97686.94;4958495;28;20042;-38
2022/07/07 06:15:24;;;;;;;2.25;0.90;;;19.50;83.80;;;19.58;49.65;97689.88;4951568;28;20042;-39
2022/07/07 06:17:49;;;;;;;2.72;1.20;;;19.70;83.10;;;19.77;49.81;97692.97;4952817;28;20031;-38
2022/07/07 06:20:15;;;;;;;3.17;1.10;;;19.80;83.30;;;19.78;49.16;97701.88;4954698;28;20035;-38
2022/07/07 06:22:41;;;;;;;2.08;1.02;;;19.80;82.70;;;19.65;49.79;97699.19;4949906;28;20538;-39
2022/07/07 06:25:08;;;;;;;2.65;1.27;;;19.70;83.00;;;19.55;49.56;97695.41;4948188;28;20886;-38
2022/07/07 06:27:35;;;;;;;2.33;1.10;;;19.60;82.60;;;19.38;50.86;97686.75;4953685;28;20023;-39
2022/07/07 06:30:03;;;;;;;2.22;1.27;;;19.50;83.60;;;19.37;51.18;97692.19;4958761;28;20039;-38
2022/07/07 06:32:28;;;;;;;4.00;1.40;;;19.50;84.00;;;19.23;51.07;97655.69;4948946;28;20039;-38
2022/07/07 06:34:54;;;;;;;2.40;1.10;;;19.50;83.90;;;19.58;51.08;97677.34;4956225;28;20053;-38
2022/07/07 06:37:20;;;;;;;6.25;1.65;;;19.70;84.80;;;19.85;51.38;97673.75;4957383;28;20511;-38
2022/07/07 06:39:46;;;;;;;2.03;1.10;;;20.00;84.80;;;20.13;50.41;97677.13;4960580;28;20039;-41
2022/07/07 06:42:11;;;;;;;4.40;1.30;;;20.20;83.60;;;20.39;48.93;97683.28;4956820;28;20023;-41
2022/07/07 06:44:37;;;;;;;5.10;1.30;;;20.50;82.20;;;20.35;48.65;97674.63;4961799;28;20042;-42
2022/07/07 06:47:03;;;;;;;2.13;1.08;;;20.50;81.30;;;20.18;50.21;97685.69;4962430;28;20042;-41
2022/07/07 06:49:29;;;;;;;8.90;1.60;;;20.40;83.00;;;20.13;49.43;97677.13;4950558;28;20027;-41
2022/07/07 06:51:55;;;;;;;3.15;1.20;;;20.30;81.50;;;20.03;50.06;97679.59;4951053;28;20081;-42
2022/07/07 06:54:21;;;;;;;3.67;1.23;;;20.30;83.10;;;20.05;50.50;97680.34;4949725;28;20050;-41
2022/07/07 06:56:47;;;;;;;3.92;1.52;;;20.20;82.90;;;19.87;49.40;97679.84;4949797;28;20046;-41
2022/07/07 06:59:13;;;;;;;3.53;1.50;;;20.20;82.10;;;20.10;50.47;97678.22;4949665;28;20498;-42
2022/07/07 07:01:39;;;;;;;7.45;1.40;;;20.20;82.70;;;20.23;51.45;97670.16;4955426;28;20517;-41
2022/07/07 07:04:07;;;;;;;2.75;1.20;;;20.50;84.50;;;20.55;48.95;97688.41;4955220;28;20551;-41
2022/07/07 07:06:33;;;;;;;2.88;1.50;;;20.70;82.00;;;20.88;50.23;97686.91;4950939;28;20081;-41
2022/07/07 07:08:59;;;;;;;2.95;1.38;;;21.00;83.50;;;20.95;49.79;97688.16;4959363;28;20117;-41
2022/07/07 07:11:28;;;;;;;2.42;1.45;;;21.10;82.60;;;20.73;48.30;97684.38;4957334;28;20050;-41
2022/07/07 07:13:56;;;;;;;3.40;1.40;;;21.10;80.80;;;20.75;50.17;97692.31;4956402;28;20047;-41
2022/07/07 07:16:22;;;;;;;3.10;1.20;;;20.90;82.00;;;20.62;49.54;97692.38;4954591;28;20031;-39
2022/07/07 07:18:48;;;;;;;2.90;1.20;;;20.80;81.70;;;20.60;50.67;97696.94;4958584;28;20077;-38
2022/07/07 07:21:14;;;;;;;2.63;1.30;;;20.80;83.60;;;20.64;54.24;97695.78;4953136;28;20038;-41
2022/07/07 07:23:40;;;;;;;4.47;1.50;;;20.80;86.50;;;20.63;50.86;97696.75;4955016;28;20038;-41
2022/07/07 07:26:07;;;;;;;1.95;1.20;;;20.80;82.80;;;20.77;50.43;97698.41;4950311;28;20434;-40
2022/07/07 07:28:34;;;;;;;3.13;1.30;;;20.90;83.20;;;20.83;49.36;97703.31;4949979;28;20030;-40
2022/07/07 07:31:00;;;;;;;3.58;1.65;;;21.00;81.90;;;20.71;50.69;97694.38;4955954;28;20039;-41
2022/07/07 07:33:28;;;;;;;3.25;1.42;;;21.00;83.00;;;20.88;50.35;97694.94;4957207;28;20026;-40
2022/07/07 07:35:54;;;;;;;2.08;1.08;;;21.00;83.00;;;20.90;49.75;97693.84;4952368;28;20129;-40
2022/07/07 07:38:20;;;;;;;3.30;1.55;;;21.00;82.10;;;20.92;53.26;97697.25;4952874;28;20027;-41
2022/07/07 07:40:46;;;;;;;3.40;1.30;;;21.10;84.80;;;21.01;51.84;97695.72;4954208;28;20214;-40
2022/07/07 07:43:12;;;;;;;3.03;1.50;;;21.30;84.80;;;20.97;50.22;97703.13;4950454;28;20118;-40
2022/07/07 07:45:38;;;;;;;3.60;1.40;;;21.20;82.80;;;20.71;50.43;97712.25;4947952;28;20037;-40
2022/07/07 07:48:04;;;;;;;5.47;1.38;;;21.10;82.20;;;20.50;50.42;97712.81;4949655;28;20035;-40
2022/07/07 07:50:31;;;;;;;3.80;1.63;;;20.90;82.50;;;20.30;53.28;97716.94;4947169;28;20030;-40
2022/07/07 07:52:58;;;;;;;3.13;1.50;;;20.60;84.90;;;20.19;56.68;97720.38;4947057;28;20058;-40
2022/07/07 07:55:24;;;;;;;2.92;1.50;;;20.40;88.00;;;19.96;54.89;97730.03;4948188;28;20493;-40
2022/07/07 07:57:52;;;;;;;4.40;1.55;;;20.30;86.70;;;19.73;54.40;97718.25;4952008;28;20199;-40
2022/07/07 08:00:20;;;;;;;4.25;1.40;;;20.20;85.90;;;19.51;55.10;97732.22;4961014;28;20102;-40
2022/07/07 08:02:47;;;;;;;3.13;1.50;;;20.00;85.80;;;19.31;58.55;97735.38;4954540;28;20287;-40
2022/07/07 08:05:15;;;;;;;4.43;1.50;;;19.70;88.10;;;19.12;58.62;97733.09;4954162;28;20038;-40
2022/07/07 08:07:42;;;;;;;3.85;1.70;;;19.50;88.10;;;18.97;56.78;97741.16;4957808;28;20026;-38
2022/07/07 08:10:10;;;;;;;5.40;1.58;;;19.40;87.40;;;18.93;57.87;97731.59;4955484;28;20062;-38
2022/07/07 08:12:37;;;;;;;5.30;1.75;;;19.30;89.10;;;18.95;56.97;97732.38;4951686;28;22401;-38
2022/07/07 08:15:04;;;;;;;2.92;1.58;;;19.30;88.00;;;18.96;56.47;97738.56;4952986;28;20038;-38
2022/07/07 08:17:30;;;;;;;2.60;1.50;;;19.20;89.00;;;18.96;57.86;97719.88;4957273;28;20043;-38
2022/07/07 08:19:56;;;;;;;4.03;1.65;;;19.30;89.20;;;18.96;57.29;97712.69;4946861;28;20034;-38
2022/07/07 08:22:22;;;;;;;4.25;1.67;;;19.30;89.20;;;19.14;57.50;97707.94;4958299;28;20038;-38
2022/07/07 08:24:48;;;;;;;5.78;1.80;;;19.30;89.30;;;19.38;56.22;97693.88;4953996;28;20847;-38
2022/07/07 08:27:14;;;;;;;5.82;1.77;;;19.60;88.60;;;19.71;55.40;97698.75;4947654;28;20060;-38
2022/07/07 08:29:41;;;;;;;5.40;1.30;;;19.90;87.70;;;19.86;54.12;97699.53;4941777;28;20125;-38
2022/07/07 08:32:10;;;;;;;4.38;1.90;;;20.20;86.80;;;20.02;54.79;97689.44;4937828;28;20049;-39
2022/07/07 08:34:38;;;;;;;3.80;1.60;;;20.30;86.80;;;20.21;54.30;97698.88;4950536;28;20042;-38
2022/07/07 08:37:04;;;;;;;3.13;1.50;;;20.40;86.80;;;20.22;54.44;97697.88;4946253;28;20041;-38
2022/07/07 08:39:30;;;;;;;3.10;1.80;;;20.40;86.70;;;19.96;56.53;97697.91;4949368;28;20043;-41
2022/07/07 08:41:56;;;;;;;6.22;1.98;;;20.40;88.30;;;19.78;56.39;97710.75;4952020;28;20108;-41
2022/07/07 08:44:22;;;;;;;5.35;1.80;;;20.30;87.20;;;19.75;58.36;97708.28;4952022;28;20026;-40
2022/07/07 08:46:48;;;;;;;2.65;1.80;;;20.20;89.10;;;19.89;57.48;97712.69;4947601;28;20050;-41
2022/07/07 08:49:14;;;;;;;2.20;1.50;;;20.20;88.70;;;19.88;57.49;97710.97;4948890;28;20057;-41
2022/07/07 08:51:44;;;;;;;7.00;1.88;;;20.20;89.40;;;19.90;58.26;97709.06;4945637;28;20089;-41
2022/07/07 08:54:13;;;;;;;3.22;1.70;;;20.20;89.80;;;19.94;59.24;97699.84;4958678;28;21312;-40
2022/07/07 08:56:39;;;;;;;6.68;2.70;;;20.20;90.10;;;20.12;58.02;97694.16;4951384;28;20145;-41
2022/07/07 08:59:07;;;;;;;6.65;2.58;;;20.40;89.80;;;20.51;56.16;97686.88;4953110;28;20031;-41
2022/07/07 09:01:35;;;;;;;9.23;2.22;;;20.70;89.00;;;20.66;56.88;97671.56;4955931;28;20093;-41
2022/07/07 09:04:02;;;;;;;5.47;2.33;;;20.90;89.10;;;20.79;56.82;97677.72;4951037;28;20030;-41
2022/07/07 09:06:29;;;;;;;7.18;2.30;;;21.00;88.90;;;20.78;56.61;97674.19;4952592;28;21116;-40
2022/07/07 09:08:55;;;;;;;3.35;2.00;;;21.10;88.60;;;21.10;59.32;97681.66;4956228;28;20038;-41
2022/07/07 09:11:25;;;;;;;6.20;2.22;;;21.30;90.50;;;21.36;55.86;97681.50;4961382;28;20077;-40
2022/07/07 09:13:51;;;;;;;3.42;2.30;;;21.60;88.50;;;21.71;54.38;97683.31;4963078;28;20042;-40
2022/07/07 09:16:17;;;;;;;3.70;2.47;;;22.00;87.60;;;21.58;53.97;97686.09;4955869;28;20027;-41
2022/07/07 09:18:46;;;;;;;6.15;2.17;;;22.10;86.30;;;21.70;55.57;97695.03;4955481;28;20462;-41
2022/07/07 09:21:31;;;;;;;3.58;1.65;;;22.10;87.10;;;21.72;55.51;97691.25;4958040;28;20018;-40
2022/07/07 09:24:02;;;;;;;2.50;1.60;;;22.20;87.20;;;21.63;56.30;97686.59;4951548;28;20498;-41
2022/07/07 09:26:43;;;;;;;2.60;1.40;;;22.20;89.00;;;21.27;57.38;97714.38;4960007;28;20038;-40
2022/07/07 09:29:13;;;;;;;2.75;1.23;;;21.90;88.20;;;20.94;58.81;97705.19;4961626;28;20073;-41
2022/07/07 09:32:04;;;;;;;2.53;1.45;;;21.50;88.70;;;20.60;62.46;97702.28;4974323;23;20027;-49
2022/07/07 09:34:36;;;;;;;4.53;1.15;;;21.10;90.50;;;20.49;63.69;97715.63;4941797;28;20147;-49
2022/07/07 09:39:54;;;;;;;4.28;1.70;;;20.70;91.90;;;19.99;65.63;97703.06;4944857;28;20098;-50
2022/07/07 09:42:27;;;;;;;3.10;1.30;;;20.40;92.10;;;19.81;68.73;97699.84;4927463;28;20032;-53
2022/07/07 09:44:54;;;;;;;4.40;1.50;;;20.20;93.10;;;19.53;68.76;97716.91;4915266;29;20114;-52
2022/07/07 09:47:22;;;;;;;3.28;1.45;;;19.90;93.10;;;19.37;72.35;97706.41;4915457;29;20050;-53
2022/07/07 09:50:01;;;;;;;2.55;1.48;;;19.70;94.20;;;19.28;72.02;97715.06;4907300;29;20031;-49
2022/07/07 09:52:29;;;;;;;3.28;1.40;;;19.60;94.30;;;19.26;71.63;97725.00;4918226;29;20484;-49
2022/07/07 09:54:57;;;;;;;1.58;1.35;;;19.60;94.60;;;19.43;72.28;97730.06;4916884;29;20566;-52
2022/07/07 09:57:23;;;;;;;2.85;1.30;;;19.70;94.80;;;19.57;68.22;97717.56;4919819;29;20055;-51
2022/07/07 09:59:49;;;;;;;3.40;1.50;;;19.90;93.50;;;19.77;67.30;97716.22;4906920;29;20545;-49
2022/07/07 10:02:29;;;;;;;3.25;1.33;;;20.10;93.20;;;19.95;67.87;97728.31;4920313;29;20471;-49
2022/07/07 10:05:00;;;;;;;4.40;1.52;;;20.30;92.90;;;20.12;64.60;97734.34;4917257;29;20613;-51
2022/07/07 10:07:29;;;;;;;2.10;1.30;;;20.60;91.90;;;20.38;63.63;97736.00;4912800;29;20043;-52
2022/07/07 10:10:01;;;;;;;4.53;1.83;;;20.70;92.00;;;20.34;63.65;97723.78;4918259;29;20345;-52
2022/07/07 10:12:28;;;;;;;5.05;1.95;;;20.80;91.70;;;20.58;62.86;97728.34;4922630;29;20377;-52
2022/07/07 10:15:11;;;;;;;2.00;1.25;;;21.00;91.60;;;20.85;62.34;97733.53;4916895;29;20067;-52
2022/07/07 10:17:39;;;;;;;4.00;1.83;;;21.30;91.40;;;21.13;63.00;97735.03;4923567;29;20326;-53
2022/07/07 10:20:06;;;;;;;3.58;1.30;;;21.50;91.60;;;21.47;62.55;97743.25;4916212;29;20122;-50
2022/07/07 10:22:33;;;;;;;3.05;1.65;;;21.80;91.80;;;21.45;59.38;97739.84;4916330;29;20095;-50